METAR / TAF

La liste des METAR et des TAF n’est pas destinée pour un briefing météo pour des raisons techniques (disponibilité, cycle de renouvellement). Il faut plutôt utiliser le skybriefing de Skyguide ou le TAMSI (plateforme de self-briefing météo conçue par MétéoSuisse pour les entreprises dans le domaine de l’aéronautique, questions et demandes d’informations à 

Formulaire de contact

 

METAR Suisse

METAR     LSZH 162250Z 03006KT 7000 FEW017 BKN019 04/M00 Q1025
               NOSIG=
METAR     LSZH 162320Z 05005KT 020V090 7000 FEW018 BKN019 04/M00
               Q1025 NOSIG=
METAR     LSGG 162250Z AUTO 36004KT 330V050 9999 BKN013 05/04 Q1024
               NOSIG=
METAR     LSGG 162320Z AUTO 36003KT 320V030 9999 BKN014 05/04 Q1024
               NOSIG=
METAR     LFSB 162330Z AUTO 10005KT 9999 FEW027 02/00 Q1025 TEMPO
               0500 FG VV///=
METAR     LSZB 162250Z AUTO VRB01KT 9999 BKN021 05/01 Q1023=
METAR     LSZB 162320Z AUTO VRB01KT 9999 OVC020 05/01 Q1023=
METAR     LSZA 162250Z AUTO VRB01KT 9999 OVC050 08/06 Q1028=
METAR     LSZA 162320Z AUTO 36002KT 9999 OVC050 08/06 Q1027=
METAR     LSZG 162250Z AUTO 05009KT 9999 OVC021 05/01 Q1024=
METAR     LSZG 162320Z AUTO 05009KT 9999 OVC021 04/01 Q1024=
METAR     LSZR 162250Z AUTO 13005KT 9999 OVC017 04/02 Q1025=
METAR     LSZR 162320Z AUTO 08004KT 9999 OVC017 04/02 Q1025=
METAR     LSGS 162250Z AUTO VRB01KT 9999 BKN019 05/01 Q1023=
METAR     LSGS 162320Z AUTO VRB01KT 9999 NCD 04/01 Q1023=
METAR     LSGC 162250Z AUTO VRB03KT CAVOK M01/M04 Q1021=
METAR     LSGC 162320Z AUTO 07006KT 040V140 CAVOK M00/M03 Q1021=
METAR     LSZC 162250Z AUTO 32005KT 9999 OVC020 06/02 Q1024=
METAR     LSZC 162320Z AUTO 28003KT 190V340 9999 OVC019 06/02 Q1024=
METAR     LSZL 162250Z AUTO 00000KT 6000NDV FEW036 BKN046 08/07
               Q1028 RMK=
METAR     LSZL 162320Z AUTO 00000KT 6000NDV BKN047 08/07 Q1027 RMK=
METAR     LSZS 162250Z AUTO 19006KT 9999 BKN022 BKN027 M00/M05
               Q1023=
METAR     LSZS 162320Z AUTO 17008KT 9999 FEW016 BKN024 M00/M05
               Q1023=
METAR     LSMA 162250Z AUTO 00000KT 9999NDV OVC022 06/02 Q1024 RMK=
METAR     LSMA 162320Z AUTO VRB01KT 9999NDV OVC022 06/02 Q1024 RMK=
METAR RRA LSMD 162320Z AUTO 05010KT 9999NDV SCT018 OVC024 04/01
               Q1025 RMK=
METAR     LSMD 162250Z AUTO 03010KT 9999NDV FEW018 OVC024 04/01
               Q1025 RMK=
METAR     LSME 162250Z AUTO 03006KT 9999NDV OVC023 05/02 Q1024 RMK=
METAR     LSME 162320Z AUTO 04006KT 340V070 9000NDV OVC023 05/02
               Q1024 RMK=
METAR     LSMM 162250Z AUTO VRB03KT 9999NDV OVC018 05/01 Q1023 RMK=
METAR     LSMM 162320Z AUTO 13007KT 100V170 9999NDV OVC018 05/01
               Q1023 RMK=
METAR     LSMP 162250Z AUTO 03003KT 360V060 9999NDV OVC021 05/02
               Q1024 RMK=
METAR     LSMP 162320Z AUTO 03004KT 340V070 8000NDV OVC023 05/02
               Q1024 RMK=
METAR     LSMS 162250Z AUTO VRB01KT 9999 BKN019 05/01 Q1023=
METAR     LSMS 162320Z AUTO VRB01KT 9999 NCD 04/01 Q1023=
Actualisé le samedi 17 novembre 2018 à 00h42

TAF Suisse

TAF     LSZH 162025Z 1621/1803 01006KT 8000 FEW017 BKN020
             TX05/1714Z TN02/1723Z BECMG 1708/1710 06010KT PROB40
             1714/1721 CAVOK BECMG 1717/1719 02005KT PROB30
             1720/1803 BKN013=
TAF     LSGG 162025Z 1621/1803 02006KT 8000 SCT013 OVC016
             TX06/1715Z TN05/1706Z PROB30 TEMPO 1622/1706 3000 BR=
TAF AAB LFSB 161930Z 1619/1718 VRB03KT 9999 FEW020 BECMG 1621/1701
             3000 BR OVC008 TEMPO 1622/1709 0500 FG VV/// BECMG
             1709/1712 35005KT CAVOK BECMG 1714/1716 VRB03KT=
TAF     LFSB 161700Z 1618/1718 01005KT 9999 BKN020 TEMPO 1621/1709
             4000 BR BKN008 PROB40 TEMPO 1622/1709 0800 FG VV///=
TAF AAB LSGS 162005Z 1620/1624 CNL=
TAF     LSGS 161425Z 1615/1624 25005KT CAVOK=
TAF AAH LSZA 162050Z 1620/1624 CNL=
TAF     LSZA 161425Z 1615/1624 VRB03KT 9000 FEW030 OVC040=
TAF AAD LSZB 162050Z 1620/1624 CNL=
TAF     LSZB 161425Z 1615/1624 VRB03KT 9999 OVC010 PROB40 1619/1624
             4500 BR BKN009=
TAF AAD LSZG 162050Z 1620/1624 CNL=
TAF AAA LSZG 161700Z 1617/1624 07005KT 7000 OVC016 PROB40 TEMPO
             1620/1624 OVC012=
TAF     LSZG 161425Z 1615/1624 07005KT 6000 BR OVC010 PROB40 TEMPO
             1618/1624 OVC009=
TAF     LSZL 161725Z 1618/1703 VRB03KT 8000 BKN025 OVC035=
TAF AAE LSZR 162050Z 1620/1624 CNL=
TAF     LSZR 161425Z 1615/1624 VRB03KT 9999 FEW018 PROB40 1615/1619
             CAVOK BECMG 1619/1621 BKN012 PROB30 1622/1624 OVC008=
TAF AAC LSGC 162006Z 1620/1624 CNL=
TAF     LSGC 161425Z 1615/1624 07004KT CAVOK=
TAF AAG LSZC 162050Z 1620/1624 CNL=
TAF     LSZC 161425Z 1615/1624 22004KT 7000 FEW005 OVC015 TEMPO
             1615/1618 OVC012 BECMG 1618/1621 4000 BR BKN008=
TAF AAF LSZS 162050Z 1620/1624 CNL=
TAF     LSZS 161425Z 1615/1624 23007KT CAVOK TX07/1615Z PROB40
             1616/1624 4500 BR BKN010=
TAF AAA LSMA 162053Z 1620/1723 VRB03KT 9999 FEW014 OVC020 PROB30
             1623/1709 OVC013 PROB40 1714/1719 CAVOK PROB40
             1719/1723 BKN012=
TAF     LSMA 161625Z 1617/1723 VRB03KT 9999 OVC013 PROB40 1620/1709
             OVC009 BECMG 1708/1711 BKN016 PROB30 1714/1719 CAVOK
             PROB40 1719/1723 BKN012=
TAF     LSMD 161625Z 1617/1723 VRB03KT 9999 OVC020 PROB40 1620/1709
             OVC013 PROB40 1714/1719 CAVOK PROB40 1719/1723
             BKN013=
TAF     LSME 161625Z 1617/1723 04006KT 9999 OVC016 PROB40 1620/1709
             OVC011 PROB30 1714/1719 CAVOK PROB40 1719/1723
             BKN010=
TAF     LSMM 161625Z 1617/1723 05016KT 9999 BKN017 PROB40 1617/1708
             OVC010 BECMG 1618/1620 07005KT BECMG 1710/1713
             07015KT PROB40 1712/1720 CAVOK PROB30 TEMPO 1714/1720
             08018G28KT=
TAF     LSMP 161625Z 1617/1723 04005KT 5000 BR OVC010 PROB40 TEMPO
             1622/1706 2500=
Actualisé le vendredi 16 novembre 2018 à 23h03